createdAt,value
2022-12-04T00:05:43.609Z,99191.40
2022-12-04T00:15:50.796Z,99191.67
2022-12-04T00:26:01.644Z,99205.20
2022-12-04T00:36:06.466Z,99208.64
2022-12-04T00:46:13.923Z,99212.32
2022-12-04T00:56:23.915Z,99201.11
2022-12-04T01:06:33.407Z,99188.27
2022-12-04T01:16:41.864Z,99175.88
2022-12-04T01:26:49.193Z,99177.13
2022-12-04T01:36:56.195Z,99173.65
2022-12-04T01:47:03.975Z,99179.23
2022-12-04T01:57:13.352Z,99170.91
2022-12-04T02:07:20.707Z,99159.48
2022-12-04T02:17:27.296Z,99163.96
2022-12-04T02:27:45.266Z,99160.90
2022-12-04T02:37:57.208Z,99156.21
2022-12-04T02:48:04.799Z,99156.26
2022-12-04T02:58:12.561Z,99145.67
2022-12-04T03:08:20.230Z,99137.56
2022-12-04T03:18:31.228Z,99149.59
2022-12-04T03:28:44.302Z,99155.23
2022-12-04T03:38:54.192Z,99161.91
2022-12-04T03:49:07.793Z,99150.23
2022-12-04T03:59:21.280Z,99149.98
2022-12-04T04:09:30.375Z,99149.75
2022-12-04T04:19:57.953Z,99144.45
2022-12-04T04:30:06.154Z,99159.09
2022-12-04T04:40:11.135Z,99156.83
2022-12-04T04:50:21.164Z,99149.85
2022-12-04T05:00:28.576Z,99144.99
2022-12-04T05:10:35.492Z,99148.23
2022-12-04T05:20:42.834Z,99140.34
2022-12-04T05:30:56.328Z,99135.52
2022-12-04T05:41:05.975Z,99131.86
2022-12-04T05:51:12.043Z,99139.61
2022-12-04T06:01:19.025Z,99145.77
2022-12-04T06:21:37.675Z,99144.92
2022-12-04T06:31:45.063Z,99147.55
2022-12-04T06:41:52.202Z,99165.77
2022-12-04T06:51:59.266Z,99168.68
2022-12-04T07:02:06.373Z,99171.98
2022-12-04T07:12:13.707Z,99183.41
2022-12-04T07:22:21.345Z,99189.17
2022-12-04T07:32:28.659Z,99192.56
2022-12-04T07:42:35.761Z,99188.23
2022-12-04T07:52:43.293Z,99178.98
2022-12-04T08:02:50.809Z,99173.93
2022-12-04T08:12:58.601Z,99181.44
2022-12-04T08:23:05.734Z,99196.02
2022-12-04T08:33:13.254Z,99199.81
2022-12-04T08:43:20.459Z,99196.41
2022-12-04T08:53:27.996Z,99194.19
2022-12-04T09:03:36.254Z,99188.59
2022-12-04T09:13:45.038Z,99184.13
2022-12-04T09:23:53.023Z,99180.67
2022-12-04T09:34:00.843Z,99174.54
2022-12-04T09:44:11.809Z,99162.23
2022-12-04T09:54:21.964Z,99161.41
2022-12-04T10:04:29.895Z,99156.88
2022-12-04T10:14:42.910Z,99154.23
2022-12-04T10:24:53.775Z,99143.94
2022-12-04T10:35:04.653Z,99144.23
2022-12-04T10:45:12.090Z,99149.21
2022-12-04T10:55:29.889Z,99142.20
2022-12-04T11:05:40.090Z,99148.08
2022-12-04T11:15:48.761Z,99138.13
2022-12-04T11:26:05.613Z,99136.46
2022-12-04T11:36:17.810Z,99133.50
2022-12-04T11:46:25.327Z,99129.09
2022-12-04T11:56:30.975Z,99117.65
2022-12-04T12:06:38.895Z,99117.22
2022-12-04T12:27:05.773Z,99111.65
2022-12-04T12:37:13.158Z,99099.38
2022-12-04T12:47:17.704Z,99101.45
2022-12-04T12:57:32.549Z,99111.66
2022-12-04T13:07:40.766Z,99123.30
2022-12-04T13:17:51.515Z,99114.14
2022-12-04T13:27:59.545Z,99110.83
2022-12-04T13:38:10.243Z,99112.77
2022-12-04T13:48:27.780Z,99116.59
2022-12-04T13:58:37.674Z,99120.02
2022-12-04T14:08:46.344Z,99112.55
2022-12-04T14:18:53.974Z,99111.22
2022-12-04T14:29:07.173Z,99102.45
2022-12-04T14:39:13.130Z,99105.61
2022-12-04T14:49:28.573Z,99108.84
2022-12-04T14:59:43.002Z,99113.90
2022-12-04T15:20:22.774Z,99100.86
2022-12-04T15:30:30.191Z,99107.89
2022-12-04T15:40:37.697Z,99114.41
2022-12-04T15:50:45.339Z,99109.17
2022-12-04T16:00:55.551Z,99124.50
2022-12-04T16:11:05.626Z,99123.69
2022-12-04T16:21:15.376Z,99120.50
2022-12-04T16:31:26.870Z,99105.52
2022-12-04T16:41:34.489Z,99123.46
2022-12-04T16:51:41.627Z,99108.71
2022-12-04T17:01:53.724Z,99116.48
2022-12-04T17:12:01.104Z,99114.70
2022-12-04T17:22:08.450Z,99119.09
2022-12-04T17:32:16.073Z,99120.48
2022-12-04T17:42:22.180Z,99127.67
2022-12-04T17:52:31.294Z,99120.94
2022-12-04T18:02:39.207Z,99134.64
2022-12-04T18:12:46.404Z,99133.39
2022-12-04T18:22:53.514Z,99135.23
2022-12-04T18:33:00.668Z,99122.91
2022-12-04T18:43:08.308Z,99121.33
2022-12-04T18:53:16.228Z,99119.55
2022-12-04T19:03:23.764Z,99117.44
2022-12-04T19:13:31.119Z,99109.27
2022-12-04T19:23:38.668Z,99115.83
2022-12-04T19:33:46.061Z,99128.16
2022-12-04T19:43:56.749Z,99135.48
2022-12-04T19:54:04.845Z,99136.29
2022-12-04T20:04:12.704Z,99131.91
2022-12-04T20:14:20.259Z,99127.30
2022-12-04T20:24:27.685Z,99140.10
2022-12-04T20:34:38.787Z,99130.08
2022-12-04T20:44:49.134Z,99134.61
2022-12-04T20:54:56.303Z,99127.96
2022-12-04T21:05:04.073Z,99114.67
2022-12-04T21:15:28.439Z,99111.05
2022-12-04T21:25:37.402Z,99109.08
2022-12-04T21:35:43.753Z,99115.97
2022-12-04T21:45:57.802Z,99111.27
2022-12-04T21:56:05.058Z,99103.37
2022-12-04T22:06:12.740Z,99108.09
2022-12-04T22:16:28.156Z,99110.16
2022-12-04T22:26:36.643Z,99117.30
2022-12-04T22:36:43.920Z,99114.70
2022-12-04T22:46:50.162Z,99105.22
2022-12-04T22:56:57.297Z,99100.11
2022-12-04T23:07:04.569Z,99094.38
2022-12-04T23:17:10.844Z,99089.77
2022-12-04T23:27:17.970Z,99088.14
2022-12-04T23:37:25.112Z,99084.92
2022-12-04T23:47:32.147Z,99079.45
2022-12-04T23:57:39.246Z,99073.12
